Time;durP1;ratioP1;P1;durP2;ratioP2;P2;SDS_P1;SDS_P2;PMS_P1;PMS_P2;Temp;Humidity;BMP_temperature;BMP_pressure;BME280_temperature;BME280_humidity;BME280_pressure;Samples;Min_cycle;Max_cycle;Signal;HPM_P1;HPM_P2
2021/10/31 00:00:59;;;;;;;26.80;10.63;;;;;;;;;;5093027;28;20503;-56
2021/10/31 00:03:25;;;;;;;27.27;11.35;;;;;;;;;;5090547;28;20137;-56
2021/10/31 00:05:51;;;;;;;20.50;10.13;;;;;;;;;;5090888;28;20051;-57
2021/10/31 00:08:18;;;;;;;24.95;11.32;;;;;;;;;;5091060;28;20071;-57
2021/10/31 00:10:46;;;;;;;25.98;12.15;;;;;;;;;;5091226;28;20050;-56
2021/10/31 00:13:13;;;;;;;21.70;9.95;;;;;;;;;;5093035;28;20048;-57
2021/10/31 00:15:39;;;;;;;23.80;11.77;;;;;;;;;;5090535;28;20127;-57
2021/10/31 00:18:05;;;;;;;23.55;9.75;;;;;;;;;;5091086;28;20048;-57
2021/10/31 00:20:32;;;;;;;18.85;9.15;;;;;;;;;;5090680;28;20052;-57
2021/10/31 00:22:58;;;;;;;22.00;8.93;;;;;;;;;;5091209;28;20075;-57
2021/10/31 00:25:24;;;;;;;22.08;10.18;;;;;;;;;;5091258;28;20123;-56
2021/10/31 00:27:51;;;;;;;24.40;11.20;;;;;;;;;;5092496;28;20071;-57
2021/10/31 00:30:17;;;;;;;22.50;10.57;;;;;;;;;;5091062;28;20071;-57
2021/10/31 00:32:43;;;;;;;22.30;10.20;;;;;;;;;;5090736;28;20044;-57
2021/10/31 00:35:10;;;;;;;25.17;10.15;;;;;;;;;;5090822;28;20051;-57
2021/10/31 00:37:36;;;;;;;26.13;10.32;;;;;;;;;;5072045;28;20072;-56
2021/10/31 00:40:03;;;;;;;22.80;9.85;;;;;;;;;;5092785;28;20376;-57
2021/10/31 00:42:29;;;;;;;21.02;10.63;;;;;;;;;;5091124;28;20127;-57
2021/10/31 00:44:56;;;;;;;20.13;9.60;;;;;;;;;;5090948;28;20085;-57
2021/10/31 00:47:22;;;;;;;23.05;10.38;;;;;;;;;;5091144;28;20047;-57
2021/10/31 00:49:48;;;;;;;22.70;10.95;;;;;;;;;;5091199;28;20043;-57
2021/10/31 00:52:16;;;;;;;21.73;10.25;;;;;;;;;;5091464;28;20541;-57
2021/10/31 00:54:42;;;;;;;29.27;11.10;;;;;;;;;;5087322;28;20136;-56
2021/10/31 00:57:10;;;;;;;21.75;9.32;;;;;;;;;;5082547;28;20048;-57
2021/10/31 00:59:37;;;;;;;21.10;10.27;;;;;;;;;;5081079;28;20075;-57
2021/10/31 01:02:08;;;;;;;23.27;10.07;;;;;;;;;;5090566;28;20056;-56
2021/10/31 01:04:35;;;;;;;25.92;10.23;;;;;;;;;;5090505;28;20036;-57
2021/10/31 01:07:20;;;;;;;26.73;10.10;;;;;;;;;;5086055;28;20078;-56
2021/10/31 01:09:59;;;;;;;27.45;10.45;;;;;;;;;;5089916;28;20079;-57
2021/10/31 01:12:34;;;;;;;19.55;10.23;;;;;;;;;;5090224;28;20123;-57
2021/10/31 01:15:20;;;;;;;28.05;11.23;;;;;;;;;;5089931;28;20036;-57
2021/10/31 01:18:12;;;;;;;29.08;10.70;;;;;;;;;;5090225;28;20052;-57
2021/10/31 01:20:45;;;;;;;26.98;10.07;;;;;;;;;;5024530;28;20053;-57
2021/10/31 01:23:30;;;;;;;26.65;9.98;;;;;;;;;;5025068;28;20502;-57
2021/10/31 01:26:00;;;;;;;27.42;11.43;;;;;;;;;;5027066;28;20060;-57
2021/10/31 01:28:32;;;;;;;30.42;10.93;;;;;;;;;;5027955;28;20671;-57
2021/10/31 01:30:59;;;;;;;24.38;11.13;;;;;;;;;;5025410;28;20049;-56
2021/10/31 01:33:28;;;;;;;21.85;10.85;;;;;;;;;;5012873;28;20054;-57
2021/10/31 01:35:57;;;;;;;21.75;10.50;;;;;;;;;;5029097;28;20125;-57
2021/10/31 01:38:24;;;;;;;25.73;10.95;;;;;;;;;;5029181;28;20053;-56
2021/10/31 01:40:50;;;;;;;22.42;10.65;;;;;;;;;;5029422;28;20135;-57
2021/10/31 01:43:25;;;;;;;23.42;11.15;;;;;;;;;;5029015;28;20496;-56
2021/10/31 01:46:02;;;;;;;21.52;10.45;;;;;;;;;;5028548;28;20053;-57
2021/10/31 01:48:34;;;;;;;23.10;11.20;;;;;;;;;;5029441;28;20129;-57
2021/10/31 01:51:02;;;;;;;25.05;10.90;;;;;;;;;;5029048;28;20125;-56
2021/10/31 01:53:32;;;;;;;23.17;10.82;;;;;;;;;;5028950;28;20135;-57
2021/10/31 01:56:01;;;;;;;29.00;13.05;;;;;;;;;;5028937;28;20053;-57
2021/10/31 01:58:31;;;;;;;26.33;11.85;;;;;;;;;;5069421;28;20389;-57
2021/10/31 02:00:58;;;;;;;31.48;13.05;;;;;;;;;;5091922;28;20055;-56
2021/10/31 02:03:25;;;;;;;30.00;12.93;;;;;;;;;;5089713;28;20044;-57
2021/10/31 02:05:53;;;;;;;22.10;11.10;;;;;;;;;;5089655;28;20052;-57
2021/10/31 02:08:21;;;;;;;25.55;12.18;;;;;;;;;;5089579;28;20132;-56
2021/10/31 02:10:48;;;;;;;27.20;12.00;;;;;;;;;;5088027;28;20045;-57
2021/10/31 02:13:15;;;;;;;23.08;11.70;;;;;;;;;;5091500;28;20414;-57
2021/10/31 02:15:42;;;;;;;24.17;10.95;;;;;;;;;;5091214;28;20055;-56
2021/10/31 02:18:09;;;;;;;25.10;10.02;;;;;;;;;;5090342;28;20076;-57
2021/10/31 02:20:39;;;;;;;31.88;11.57;;;;;;;;;;5090115;28;20048;-57
2021/10/31 02:23:06;;;;;;;22.10;11.20;;;;;;;;;;5090410;28;20064;-56
2021/10/31 02:25:33;;;;;;;19.90;9.48;;;;;;;;;;5089908;28;20422;-57
2021/10/31 02:27:59;;;;;;;20.15;9.27;;;;;;;;;;5094023;28;20052;-56
2021/10/31 02:30:26;;;;;;;21.52;10.30;;;;;;;;;;5093793;28;20127;-56
2021/10/31 02:32:52;;;;;;;25.20;11.18;;;;;;;;;;5093654;28;20040;-57
2021/10/31 02:35:20;;;;;;;23.10;10.07;;;;;;;;;;5093633;28;20040;-56
2021/10/31 02:37:46;;;;;;;20.88;10.05;;;;;;;;;;5093722;28;20085;-56
2021/10/31 02:40:14;;;;;;;12.55;7.85;;;;;;;;;;5094677;28;20052;-56
2021/10/31 02:42:41;;;;;;;20.73;9.65;;;;;;;;;;5094320;28;20048;-57
2021/10/31 02:45:07;;;;;;;18.65;9.35;;;;;;;;;;5093477;28;20156;-57
2021/10/31 02:47:40;;;;;;;20.63;9.95;;;;;;;;;;5090535;28;20036;-56
2021/10/31 02:50:11;;;;;;;24.52;9.38;;;;;;;;;;5091799;28;20055;-56
2021/10/31 02:52:40;;;;;;;20.23;8.40;;;;;;;;;;5077486;28;20064;-57
2021/10/31 02:55:26;;;;;;;22.08;9.43;;;;;;;;;;5091140;28;20118;-56
2021/10/31 02:57:56;;;;;;;20.05;9.23;;;;;;;;;;5012965;28;20062;-57
2021/10/31 03:00:22;;;;;;;18.48;9.05;;;;;;;;;;5012818;28;20563;-56
2021/10/31 03:02:49;;;;;;;17.38;8.60;;;;;;;;;;5012581;28;20133;-56
2021/10/31 03:05:15;;;;;;;15.13;8.48;;;;;;;;;;5012669;28;20133;-56
2021/10/31 03:07:42;;;;;;;22.52;8.05;;;;;;;;;;5012669;28;20462;-57
2021/10/31 03:10:09;;;;;;;16.70;9.15;;;;;;;;;;5012818;28;20054;-57
2021/10/31 03:12:35;;;;;;;19.95;8.75;;;;;;;;;;5008344;28;20081;-57
2021/10/31 03:15:02;;;;;;;18.45;8.35;;;;;;;;;;5007408;28;20062;-57
2021/10/31 03:17:28;;;;;;;14.38;7.68;;;;;;;;;;5007903;28;20085;-56
2021/10/31 03:19:54;;;;;;;19.58;8.52;;;;;;;;;;5009541;28;20133;-56
2021/10/31 03:22:20;;;;;;;13.90;7.80;;;;;;;;;;5009479;28;20096;-57
2021/10/31 03:24:47;;;;;;;19.02;9.02;;;;;;;;;;5007656;28;20078;-57
2021/10/31 03:27:13;;;;;;;17.20;7.82;;;;;;;;;;5007144;28;20099;-57
2021/10/31 03:29:39;;;;;;;12.98;7.93;;;;;;;;;;5011764;28;20149;-56
2021/10/31 03:32:06;;;;;;;18.48;7.93;;;;;;;;;;5011621;28;20074;-57
2021/10/31 03:34:32;;;;;;;18.80;7.60;;;;;;;;;;5033834;28;20079;-57
2021/10/31 03:36:58;;;;;;;19.02;7.78;;;;;;;;;;5094205;28;20044;-57
2021/10/31 03:39:24;;;;;;;18.13;7.90;;;;;;;;;;5092167;28;20073;-57
2021/10/31 03:41:51;;;;;;;13.60;7.18;;;;;;;;;;5092347;28;20114;-56
2021/10/31 03:44:19;;;;;;;21.58;9.05;;;;;;;;;;5092400;28;20044;-56
2021/10/31 03:46:45;;;;;;;24.60;8.35;;;;;;;;;;5092337;28;20059;-57
2021/10/31 03:49:12;;;;;;;19.67;8.75;;;;;;;;;;5093674;28;20090;-57
2021/10/31 03:51:38;;;;;;;22.80;8.63;;;;;;;;;;5091382;28;20614;-57
2021/10/31 03:54:05;;;;;;;19.25;9.00;;;;;;;;;;5092165;28;20376;-57
2021/10/31 03:56:31;;;;;;;16.55;8.85;;;;;;;;;;5092176;28;20495;-57
2021/10/31 03:58:58;;;;;;;17.33;8.65;;;;;;;;;;5092080;28;20065;-56
2021/10/31 04:01:24;;;;;;;17.30;8.60;;;;;;;;;;5092072;28;20445;-57
2021/10/31 04:03:50;;;;;;;19.90;8.32;;;;;;;;;;5094059;28;20097;-56
2021/10/31 04:06:16;;;;;;;18.65;8.63;;;;;;;;;;5091881;28;20058;-56
2021/10/31 04:08:44;;;;;;;17.20;8.98;;;;;;;;;;5090390;28;20039;-57
2021/10/31 04:11:10;;;;;;;19.00;9.20;;;;;;;;;;5091756;28;20051;-56
2021/10/31 04:13:36;;;;;;;19.25;8.55;;;;;;;;;;5091982;28;20131;-56
2021/10/31 04:16:04;;;;;;;18.85;8.68;;;;;;;;;;5093833;28;20044;-57
2021/10/31 04:18:30;;;;;;;22.70;9.02;;;;;;;;;;5091653;28;20083;-57
2021/10/31 04:20:57;;;;;;;20.35;9.55;;;;;;;;;;5091313;28;20048;-56
2021/10/31 04:23:24;;;;;;;16.17;9.15;;;;;;;;;;5091515;28;20044;-56
2021/10/31 04:25:50;;;;;;;17.10;8.45;;;;;;;;;;5091522;28;20074;-56
2021/10/31 04:28:17;;;;;;;20.52;9.55;;;;;;;;;;5092610;28;20051;-56
2021/10/31 04:30:43;;;;;;;22.52;9.43;;;;;;;;;;5092597;28;20070;-57
2021/10/31 04:33:10;;;;;;;19.35;9.40;;;;;;;;;;5091422;28;20082;-57
2021/10/31 04:35:36;;;;;;;17.23;8.43;;;;;;;;;;5091109;28;20040;-57
2021/10/31 04:38:14;;;;;;;17.88;8.52;;;;;;;;;;5091320;28;20097;-57
2021/10/31 04:40:41;;;;;;;19.23;8.25;;;;;;;;;;5075761;28;20055;-57
2021/10/31 04:43:11;;;;;;;21.15;9.60;;;;;;;;;;5093610;28;20407;-57
2021/10/31 04:45:38;;;;;;;22.92;9.35;;;;;;;;;;5090336;28;20067;-57
2021/10/31 04:48:05;;;;;;;18.77;8.80;;;;;;;;;;5089842;28;20579;-57
2021/10/31 04:50:31;;;;;;;18.98;9.02;;;;;;;;;;5090175;28;20036;-57
2021/10/31 04:52:57;;;;;;;17.92;8.90;;;;;;;;;;5091222;28;20377;-57
2021/10/31 04:55:24;;;;;;;17.73;9.50;;;;;;;;;;5091286;28;20115;-56
2021/10/31 04:57:50;;;;;;;14.73;8.60;;;;;;;;;;5090959;28;20059;-57
2021/10/31 05:00:16;;;;;;;15.45;7.65;;;;;;;;;;5090991;28;20047;-57
2021/10/31 05:02:43;;;;;;;22.25;9.75;;;;;;;;;;5090991;28;20048;-57
2021/10/31 05:05:09;;;;;;;19.80;8.75;;;;;;;;;;5090713;28;20054;-57
2021/10/31 05:07:35;;;;;;;23.02;10.07;;;;;;;;;;5091001;28;20479;-57
2021/10/31 05:10:02;;;;;;;24.77;8.85;;;;;;;;;;5089691;28;20084;-55
2021/10/31 05:12:29;;;;;;;21.40;9.15;;;;;;;;;;5089612;28;20054;-57
2021/10/31 05:14:55;;;;;;;20.42;10.68;;;;;;;;;;5089476;28;20119;-57
2021/10/31 05:17:21;;;;;;;22.63;9.75;;;;;;;;;;5088238;28;20477;-56
2021/10/31 05:19:48;;;;;;;15.30;8.88;;;;;;;;;;5090604;28;20044;-56
2021/10/31 05:22:14;;;;;;;18.15;8.70;;;;;;;;;;5092141;28;20052;-57
2021/10/31 05:24:40;;;;;;;19.58;9.75;;;;;;;;;;5091531;28;20088;-56
2021/10/31 05:27:06;;;;;;;17.50;9.77;;;;;;;;;;5089228;28;20048;-57
2021/10/31 05:29:33;;;;;;;26.30;10.23;;;;;;;;;;5090633;28;20105;-57
2021/10/31 05:31:59;;;;;;;15.35;8.30;;;;;;;;;;5090819;28;20491;-56
2021/10/31 05:34:25;;;;;;;16.48;8.60;;;;;;;;;;5090471;28;20445;-56
2021/10/31 05:36:51;;;;;;;21.88;9.50;;;;;;;;;;5092661;28;20285;-57
2021/10/31 05:39:18;;;;;;;18.38;9.93;;;;;;;;;;5090712;28;20071;-57
2021/10/31 05:41:44;;;;;;;26.27;11.20;;;;;;;;;;5090600;28;20477;-56
2021/10/31 05:44:10;;;;;;;13.25;7.95;;;;;;;;;;5090711;28;20050;-56
2021/10/31 05:46:37;;;;;;;23.67;10.63;;;;;;;;;;5090444;28;20083;-57
2021/10/31 05:49:03;;;;;;;22.50;10.45;;;;;;;;;;5092240;28;20074;-56
2021/10/31 05:51:30;;;;;;;21.65;9.63;;;;;;;;;;5090565;28;20052;-57
2021/10/31 05:53:57;;;;;;;22.75;9.70;;;;;;;;;;5090375;28;20503;-57
2021/10/31 05:56:23;;;;;;;19.92;9.73;;;;;;;;;;5090357;28;20040;-56
2021/10/31 05:58:50;;;;;;;21.10;10.02;;;;;;;;;;5090431;28;20486;-57
2021/10/31 06:01:17;;;;;;;18.35;9.00;;;;;;;;;;5092485;28;20079;-57
2021/10/31 06:03:43;;;;;;;18.63;8.95;;;;;;;;;;5095321;28;20441;-56
2021/10/31 06:06:09;;;;;;;20.50;9.63;;;;;;;;;;5092920;28;20562;-57
2021/10/31 06:08:36;;;;;;;19.30;8.65;;;;;;;;;;5093652;28;20174;-57
2021/10/31 06:11:02;;;;;;;14.93;8.38;;;;;;;;;;5094252;28;20042;-56
2021/10/31 06:13:28;;;;;;;18.98;9.32;;;;;;;;;;5094088;28;20380;-57
2021/10/31 06:15:55;;;;;;;15.32;9.35;;;;;;;;;;5096261;28;20052;-56
2021/10/31 06:18:21;;;;;;;18.95;9.18;;;;;;;;;;5093893;28;20040;-57
2021/10/31 06:20:48;;;;;;;13.77;7.25;;;;;;;;;;5093832;28;20072;-56
2021/10/31 06:23:14;;;;;;;15.85;8.63;;;;;;;;;;5093925;28;20068;-56
2021/10/31 06:25:41;;;;;;;24.23;9.57;;;;;;;;;;5094031;28;20071;-56
2021/10/31 06:28:08;;;;;;;20.42;8.63;;;;;;;;;;5095989;28;20043;-56
2021/10/31 06:30:34;;;;;;;18.70;8.88;;;;;;;;;;5092472;28;20500;-57
2021/10/31 06:33:01;;;;;;;19.08;9.18;;;;;;;;;;5087832;28;20052;-57
2021/10/31 06:35:27;;;;;;;19.05;8.98;;;;;;;;;;5086689;28;20488;-57
2021/10/31 06:37:53;;;;;;;16.25;9.40;;;;;;;;;;5091624;28;20068;-56
2021/10/31 06:40:19;;;;;;;16.75;8.55;;;;;;;;;;5086886;28;20093;-56
2021/10/31 06:42:46;;;;;;;19.23;7.28;;;;;;;;;;5084663;28;20490;-55
2021/10/31 06:45:14;;;;;;;18.52;7.63;;;;;;;;;;5091193;28;20144;-56
2021/10/31 06:47:40;;;;;;;15.90;7.70;;;;;;;;;;5086608;28;20049;-56
2021/10/31 06:50:06;;;;;;;13.80;7.22;;;;;;;;;;5085620;28;20070;-57
2021/10/31 06:52:33;;;;;;;15.10;8.50;;;;;;;;;;5090202;28;20095;-57
2021/10/31 06:54:59;;;;;;;16.80;7.90;;;;;;;;;;5092748;28;20060;-57
2021/10/31 06:57:25;;;;;;;14.68;7.38;;;;;;;;;;5087086;28;20529;-56
2021/10/31 06:59:52;;;;;;;12.68;6.53;;;;;;;;;;5092143;28;20086;-56
2021/10/31 07:02:18;;;;;;;15.63;7.05;;;;;;;;;;5092025;28;20063;-56
2021/10/31 07:04:44;;;;;;;18.10;7.90;;;;;;;;;;5087603;28;20047;-57
2021/10/31 07:07:12;;;;;;;14.05;5.95;;;;;;;;;;5093059;28;20119;-56
2021/10/31 07:09:38;;;;;;;15.18;6.88;;;;;;;;;;5087201;28;20044;-56
2021/10/31 07:12:05;;;;;;;11.70;6.70;;;;;;;;;;5077208;28;20444;-57
2021/10/31 07:14:31;;;;;;;16.13;7.53;;;;;;;;;;5078546;28;20143;-57
2021/10/31 07:16:58;;;;;;;13.90;6.32;;;;;;;;;;5084164;28;20047;-56
2021/10/31 07:19:24;;;;;;;13.73;6.75;;;;;;;;;;5086449;28;20040;-56
2021/10/31 07:21:51;;;;;;;16.52;6.13;;;;;;;;;;5089169;28;20530;-56
2021/10/31 07:24:17;;;;;;;15.75;7.10;;;;;;;;;;5090176;28;20048;-55
2021/10/31 07:26:43;;;;;;;11.18;6.63;;;;;;;;;;5077768;28;20501;-57
2021/10/31 07:29:10;;;;;;;14.27;7.75;;;;;;;;;;5087651;28;20121;-57
2021/10/31 07:31:38;;;;;;;12.32;6.95;;;;;;;;;;5083986;28;20060;-57
2021/10/31 07:34:08;;;;;;;16.58;7.68;;;;;;;;;;5077141;28;20046;-57
2021/10/31 07:36:35;;;;;;;14.15;7.30;;;;;;;;;;5082206;28;20118;-57
2021/10/31 07:39:02;;;;;;;15.05;8.30;;;;;;;;;;5076712;28;20063;-57
2021/10/31 07:41:28;;;;;;;11.30;5.85;;;;;;;;;;5086902;28;20055;-56
2021/10/31 07:43:54;;;;;;;14.70;7.47;;;;;;;;;;5083101;28;20136;-57
2021/10/31 07:46:21;;;;;;;13.88;6.88;;;;;;;;;;5082341;28;20036;-57
2021/10/31 07:48:48;;;;;;;13.13;6.63;;;;;;;;;;5078993;28;20070;-57
2021/10/31 07:51:14;;;;;;;11.10;5.57;;;;;;;;;;5083721;28;20119;-56
2021/10/31 07:53:42;;;;;;;13.15;6.75;;;;;;;;;;5088297;28;20040;-56
2021/10/31 07:56:15;;;;;;;12.95;6.90;;;;;;;;;;5087393;28;20047;-57
2021/10/31 07:58:47;;;;;;;10.15;6.22;;;;;;;;;;5082432;28;20067;-56
2021/10/31 08:01:13;;;;;;;14.50;6.75;;;;;;;;;;5083798;28;20048;-55
2021/10/31 08:03:40;;;;;;;14.50;6.78;;;;;;;;;;5086326;28;20048;-55
2021/10/31 08:06:07;;;;;;;13.88;7.18;;;;;;;;;;5072887;28;20499;-54
2021/10/31 08:08:33;;;;;;;9.23;5.45;;;;;;;;;;5079561;28;20225;-54
2021/10/31 08:11:01;;;;;;;17.48;7.25;;;;;;;;;;5082702;28;20127;-54
2021/10/31 08:13:28;;;;;;;10.32;6.13;;;;;;;;;;5083246;28;20169;-55
2021/10/31 08:15:55;;;;;;;16.05;6.45;;;;;;;;;;5085159;28;20047;-55
2021/10/31 08:18:21;;;;;;;13.70;7.38;;;;;;;;;;5078545;28;20040;-54
2021/10/31 08:20:48;;;;;;;11.82;6.90;;;;;;;;;;5074520;28;20063;-55
2021/10/31 08:23:15;;;;;;;13.52;7.22;;;;;;;;;;5087252;28;20091;-57
2021/10/31 08:25:42;;;;;;;10.00;5.32;;;;;;;;;;5079078;28;20107;-56
2021/10/31 08:28:10;;;;;;;8.88;6.15;;;;;;;;;;5082472;28;20071;-55
2021/10/31 08:30:37;;;;;;;17.48;7.45;;;;;;;;;;5077894;28;20412;-55
2021/10/31 08:33:17;;;;;;;18.05;7.25;;;;;;;;;;5078126;28;20079;-58
2021/10/31 08:35:44;;;;;;;10.25;6.22;;;;;;;;;;5087970;28;20503;-58
2021/10/31 08:38:10;;;;;;;12.30;6.93;;;;;;;;;;5083796;28;20077;-58
2021/10/31 08:40:38;;;;;;;18.90;7.55;;;;;;;;;;5082199;28;20040;-58
2021/10/31 08:43:04;;;;;;;14.10;7.72;;;;;;;;;;5084961;28;20061;-58
2021/10/31 08:45:31;;;;;;;15.25;7.65;;;;;;;;;;5085646;28;20082;-58
2021/10/31 08:47:57;;;;;;;14.98;8.02;;;;;;;;;;5083981;28;20177;-57
2021/10/31 08:50:23;;;;;;;16.15;8.02;;;;;;;;;;5084723;28;20459;-59
2021/10/31 08:52:50;;;;;;;19.67;8.48;;;;;;;;;;5081739;28;20044;-59
2021/10/31 08:55:16;;;;;;;16.30;8.25;;;;;;;;;;5083112;28;20048;-59
2021/10/31 08:57:42;;;;;;;13.52;7.35;;;;;;;;;;5080875;28;20079;-58
2021/10/31 09:00:09;;;;;;;14.25;8.02;;;;;;;;;;5083436;28;20045;-59
2021/10/31 09:02:36;;;;;;;13.98;8.23;;;;;;;;;;5086202;28;20491;-59
2021/10/31 09:05:04;;;;;;;15.73;8.10;;;;;;;;;;5081890;28;20052;-58
2021/10/31 09:07:30;;;;;;;13.48;7.05;;;;;;;;;;5076979;28;20127;-59
2021/10/31 09:09:56;;;;;;;15.75;8.13;;;;;;;;;;5085666;28;20487;-58
2021/10/31 09:12:23;;;;;;;15.90;8.63;;;;;;;;;;5116460;27;20407;-60
2021/10/31 09:14:49;;;;;;;13.25;7.55;;;;;;;;;;5084606;28;20052;-58
2021/10/31 09:17:15;;;;;;;27.67;8.25;;;;;;;;;;5083673;28;20491;-58
2021/10/31 09:19:42;;;;;;;15.20;8.80;;;;;;;;;;5080973;28;20079;-59
2021/10/31 09:22:08;;;;;;;14.00;7.35;;;;;;;;;;5083965;28;20538;-60
2021/10/31 09:24:34;;;;;;;16.13;8.23;;;;;;;;;;5085182;28;20059;-60
2021/10/31 09:27:01;;;;;;;15.65;8.65;;;;;;;;;;5078904;28;20079;-58
2021/10/31 09:29:31;;;;;;;18.38;9.02;;;;;;;;;;5109029;28;20052;-59
2021/10/31 09:31:57;;;;;;;18.55;9.02;;;;;;;;;;5084653;28;20036;-58
2021/10/31 09:34:27;;;;;;;16.52;8.98;;;;;;;;;;5082392;28;20045;-59
2021/10/31 09:36:54;;;;;;;15.00;8.30;;;;;;;;;;5086692;28;20098;-59
2021/10/31 09:39:20;;;;;;;15.52;8.70;;;;;;;;;;5085249;28;20071;-57
2021/10/31 09:41:46;;;;;;;14.93;8.18;;;;;;;;;;5092746;28;20052;-58
2021/10/31 09:44:48;;;;;;;13.68;8.90;;;;;;;;;;5089252;28;20516;-58
2021/10/31 09:47:05;;;;;;;12.18;7.90;;;;;;;;;;5083196;28;20520;-58
2021/10/31 09:49:32;;;;;;;14.00;7.78;;;;;;;;;;5082281;28;20134;-59
2021/10/31 09:51:58;;;;;;;11.52;7.50;;;;;;;;;;5091016;28;20051;-58
2021/10/31 09:54:24;;;;;;;13.63;8.93;;;;;;;;;;5088050;28;20498;-59
2021/10/31 09:56:51;;;;;;;15.27;8.05;;;;;;;;;;5082940;28;20586;-59
2021/10/31 09:59:18;;;;;;;14.70;7.38;;;;;;;;;;5083100;28;20089;-59
2021/10/31 10:04:26;;;;;;;13.23;8.10;;;;;;;;;;5086924;28;20056;-59
2021/10/31 10:06:57;;;;;;;13.32;7.30;;;;;;;;;;5087822;28;20118;-60
2021/10/31 10:09:23;;;;;;;13.40;7.30;;;;;;;;;;5080914;28;20075;-59
2021/10/31 10:11:50;;;;;;;14.88;7.38;;;;;;;;;;5084028;28;20142;-58
2021/10/31 10:14:19;;;;;;;13.23;7.13;;;;;;;;;;5079858;28;20134;-60
2021/10/31 10:16:45;;;;;;;11.88;7.15;;;;;;;;;;5079205;28;20050;-60
2021/10/31 10:19:18;;;;;;;10.35;7.05;;;;;;;;;;5084376;28;20044;-59
2021/10/31 10:21:44;;;;;;;10.93;6.40;;;;;;;;;;5087626;28;20099;-59
2021/10/31 10:24:11;;;;;;;12.25;7.07;;;;;;;;;;5088226;28;20048;-60
2021/10/31 10:26:39;;;;;;;12.98;6.78;;;;;;;;;;5086383;28;20488;-58
2021/10/31 10:29:11;;;;;;;12.05;6.45;;;;;;;;;;5089905;28;20131;-59
2021/10/31 10:31:38;;;;;;;12.90;7.35;;;;;;;;;;5089375;28;20051;-60
2021/10/31 10:34:05;;;;;;;9.45;6.07;;;;;;;;;;5090780;28;20072;-59
2021/10/31 10:36:39;;;;;;;10.43;7.38;;;;;;;;;;5088413;28;20075;-60
2021/10/31 10:39:08;;;;;;;11.48;6.88;;;;;;;;;;5087975;28;20044;-59
2021/10/31 10:41:39;;;;;;;12.70;7.32;;;;;;;;;;5078782;28;20052;-60
2021/10/31 10:44:16;;;;;;;15.40;7.13;;;;;;;;;;5090390;28;20067;-60
2021/10/31 10:46:42;;;;;;;11.95;6.57;;;;;;;;;;5085018;28;20080;-60
2021/10/31 10:49:11;;;;;;;12.43;6.00;;;;;;;;;;5087007;28;20070;-59
2021/10/31 10:51:38;;;;;;;10.63;5.45;;;;;;;;;;5080300;28;20056;-60
2021/10/31 10:54:16;;;;;;;9.57;5.72;;;;;;;;;;5084052;28;20079;-59
2021/10/31 10:57:00;;;;;;;11.15;7.28;;;;;;;;;;5086055;28;20071;-59
2021/10/31 10:59:27;;;;;;;12.18;6.53;;;;;;;;;;5078380;28;20128;-60
2021/10/31 11:02:11;;;;;;;11.38;6.70;;;;;;;;;;5086605;28;20044;-60
2021/10/31 11:04:38;;;;;;;13.77;7.30;;;;;;;;;;5084780;28;20072;-60
2021/10/31 11:07:05;;;;;;;12.00;6.35;;;;;;;;;;5087744;28;21262;-59
2021/10/31 11:09:42;;;;;;;10.98;6.72;;;;;;;;;;5083848;28;20475;-60
2021/10/31 11:12:21;;;;;;;11.57;6.55;;;;;;;;;;5083959;28;20140;-58
2021/10/31 11:14:49;;;;;;;8.65;5.72;;;;;;;;;;5084700;28;20072;-60
2021/10/31 11:17:17;;;;;;;13.32;6.78;;;;;;;;;;5076704;28;20056;-58
2021/10/31 11:19:43;;;;;;;10.55;6.20;;;;;;;;;;5074935;28;20075;-60
2021/10/31 11:22:10;;;;;;;10.10;5.68;;;;;;;;;;5087948;28;20059;-60
2021/10/31 11:24:38;;;;;;;10.20;5.95;;;;;;;;;;5083659;28;20072;-60
2021/10/31 11:27:05;;;;;;;11.90;6.53;;;;;;;;;;5083763;28;20094;-59
2021/10/31 11:29:32;;;;;;;12.52;6.95;;;;;;;;;;5086969;28;20074;-60
2021/10/31 11:32:03;;;;;;;9.77;6.22;;;;;;;;;;5087001;28;20083;-58
2021/10/31 11:34:29;;;;;;;9.70;5.93;;;;;;;;;;5085053;28;20043;-59
2021/10/31 11:36:56;;;;;;;11.60;6.60;;;;;;;;;;5088741;28;20069;-59
2021/10/31 11:39:23;;;;;;;12.00;5.88;;;;;;;;;;5083692;28;20475;-60
2021/10/31 11:41:49;;;;;;;9.85;6.25;;;;;;;;;;5084218;28;20043;-60
2021/10/31 11:44:16;;;;;;;12.00;5.90;;;;;;;;;;5088296;28;20399;-60
2021/10/31 11:46:43;;;;;;;11.30;6.30;;;;;;;;;;5083920;28;20072;-60
2021/10/31 11:49:12;;;;;;;10.50;6.40;;;;;;;;;;5089002;28;20051;-62
2021/10/31 11:51:39;;;;;;;12.38;6.43;;;;;;;;;;5086541;28;20036;-60
2021/10/31 11:54:07;;;;;;;15.07;7.05;;;;;;;;;;5083208;28;20052;-61
2021/10/31 11:56:39;;;;;;;9.23;5.95;;;;;;;;;;5086087;28;20044;-60
2021/10/31 11:59:10;;;;;;;9.95;6.78;;;;;;;;;;5086863;28;20054;-60
2021/10/31 12:01:43;;;;;;;10.80;6.15;;;;;;;;;;5084537;28;20075;-61
2021/10/31 12:04:11;;;;;;;9.25;5.80;;;;;;;;;;5088420;28;20067;-60
2021/10/31 12:06:39;;;;;;;9.35;5.78;;;;;;;;;;5077711;28;20060;-60
2021/10/31 12:09:06;;;;;;;11.65;6.00;;;;;;;;;;5084901;28;20090;-60
2021/10/31 12:11:33;;;;;;;10.90;5.75;;;;;;;;;;5086402;28;20495;-61
2021/10/31 12:14:03;;;;;;;7.72;5.57;;;;;;;;;;5086169;28;20119;-60
2021/10/31 12:16:49;;;;;;;11.98;6.63;;;;;;;;;;5076236;28;20036;-60
2021/10/31 12:19:16;;;;;;;9.02;5.88;;;;;;;;;;5087781;28;20072;-60
2021/10/31 12:21:44;;;;;;;8.63;5.45;;;;;;;;;;5083859;28;20102;-61
2021/10/31 12:24:17;;;;;;;9.15;6.10;;;;;;;;;;5082523;28;20059;-60
2021/10/31 12:26:54;;;;;;;10.95;6.15;;;;;;;;;;5082615;28;20119;-61
2021/10/31 12:29:21;;;;;;;7.95;5.70;;;;;;;;;;5076297;28;20043;-60
2021/10/31 12:31:56;;;;;;;13.25;5.57;;;;;;;;;;5083418;28;20106;-60
2021/10/31 12:34:25;;;;;;;9.45;5.82;;;;;;;;;;5084210;28;20071;-60
2021/10/31 12:36:53;;;;;;;11.55;6.18;;;;;;;;;;5077452;28;20475;-59
2021/10/31 12:39:26;;;;;;;7.60;5.25;;;;;;;;;;5081776;28;20567;-59
2021/10/31 12:42:10;;;;;;;9.50;5.45;;;;;;;;;;5082193;28;20110;-59
2021/10/31 12:44:38;;;;;;;9.95;5.93;;;;;;;;;;5085554;28;20043;-58
2021/10/31 12:47:05;;;;;;;10.60;6.32;;;;;;;;;;5081619;28;20127;-61
2021/10/31 12:49:31;;;;;;;8.38;5.45;;;;;;;;;;5084052;28;20499;-61
2021/10/31 12:54:26;;;;;;;10.65;5.60;;;;;;;;;;5110068;27;20089;-61
2021/10/31 12:56:54;;;;;;;10.95;5.55;;;;;;;;;;5076700;28;20156;-61
2021/10/31 12:59:21;;;;;;;10.43;6.20;;;;;;;;;;5083805;28;20491;-61
2021/10/31 13:01:48;;;;;;;7.28;5.35;;;;;;;;;;5081626;28;20054;-62
2021/10/31 13:04:15;;;;;;;12.77;6.30;;;;;;;;;;5083833;28;20076;-61
2021/10/31 13:06:53;;;;;;;8.98;5.55;;;;;;;;;;5087553;28;20044;-62
2021/10/31 13:09:21;;;;;;;8.05;5.18;;;;;;;;;;5080822;28;20076;-61
2021/10/31 13:11:47;;;;;;;6.60;5.00;;;;;;;;;;5088622;28;20093;-61
2021/10/31 13:14:23;;;;;;;10.20;5.68;;;;;;;;;;5083085;28;20044;-62
2021/10/31 13:16:56;;;;;;;8.70;5.85;;;;;;;;;;5081205;28;20448;-61
2021/10/31 13:19:23;;;;;;;8.75;5.40;;;;;;;;;;5079150;28;20087;-61
2021/10/31 13:21:56;;;;;;;8.10;5.40;;;;;;;;;;5087217;28;20071;-62
2021/10/31 13:24:23;;;;;;;8.45;5.28;;;;;;;;;;5084832;28;20060;-62
2021/10/31 13:26:49;;;;;;;10.70;5.43;;;;;;;;;;5085456;28;20067;-61
2021/10/31 13:29:15;;;;;;;7.50;4.57;;;;;;;;;;5084541;28;20127;-62
2021/10/31 13:31:42;;;;;;;11.05;4.85;;;;;;;;;;5077619;28;20508;-62
2021/10/31 13:34:08;;;;;;;8.82;5.32;;;;;;;;;;5076027;28;20060;-61
2021/10/31 13:36:36;;;;;;;9.07;4.80;;;;;;;;;;5074393;28;20040;-61
2021/10/31 13:39:02;;;;;;;8.68;5.00;;;;;;;;;;5073936;28;20048;-61
2021/10/31 13:41:35;;;;;;;9.00;4.90;;;;;;;;;;5076863;28;20496;-62
2021/10/31 13:44:03;;;;;;;11.55;5.20;;;;;;;;;;5077242;28;20064;-61
2021/10/31 13:46:33;;;;;;;8.68;5.07;;;;;;;;;;5076836;28;20071;-61
2021/10/31 13:49:00;;;;;;;7.90;5.70;;;;;;;;;;5075930;28;20056;-61
2021/10/31 13:51:27;;;;;;;8.75;5.35;;;;;;;;;;5086481;28;20051;-61
2021/10/31 13:53:54;;;;;;;9.88;5.15;;;;;;;;;;5086503;28;20094;-61
2021/10/31 13:56:21;;;;;;;9.77;5.85;;;;;;;;;;5088220;28;20044;-61
2021/10/31 13:58:50;;;;;;;10.98;5.32;;;;;;;;;;5087520;28;20040;-61
2021/10/31 14:01:30;;;;;;;9.52;6.07;;;;;;;;;;5087878;28;20048;-61
2021/10/31 14:04:09;;;;;;;9.43;6.00;;;;;;;;;;5087741;28;20095;-61
2021/10/31 14:06:35;;;;;;;7.85;4.90;;;;;;;;;;5088676;28;20124;-61
2021/10/31 14:09:02;;;;;;;9.63;5.57;;;;;;;;;;5089695;28;20556;-61
2021/10/31 14:11:28;;;;;;;9.80;5.75;;;;;;;;;;5091868;28;20055;-61
2021/10/31 14:13:55;;;;;;;9.48;5.45;;;;;;;;;;5090087;28;20044;-60
2021/10/31 14:16:26;;;;;;;8.27;5.38;;;;;;;;;;5089488;28;20036;-60
2021/10/31 14:18:52;;;;;;;9.35;5.97;;;;;;;;;;5089714;28;20044;-61
2021/10/31 14:21:19;;;;;;;10.55;6.20;;;;;;;;;;5089656;28;20079;-60
2021/10/31 14:23:45;;;;;;;12.77;6.57;;;;;;;;;;5092798;28;20048;-61
2021/10/31 14:26:13;;;;;;;12.45;6.75;;;;;;;;;;5092893;28;20567;-60
2021/10/31 14:28:43;;;;;;;13.73;6.53;;;;;;;;;;5091907;28;20082;-60
2021/10/31 14:31:10;;;;;;;12.30;6.45;;;;;;;;;;5093142;28;20501;-60
2021/10/31 14:33:38;;;;;;;9.68;5.85;;;;;;;;;;5093399;28;20036;-60
2021/10/31 14:36:12;;;;;;;12.60;6.03;;;;;;;;;;5093189;28;20492;-60
2021/10/31 14:38:39;;;;;;;11.57;6.05;;;;;;;;;;5095339;28;20044;-60